createdAt,value
2022-08-07T00:00:40.193Z,78.92
2022-08-07T00:03:08.754Z,79.11
2022-08-07T00:05:36.145Z,79.39
2022-08-07T00:08:04.644Z,79.39
2022-08-07T00:10:31.636Z,79.41
2022-08-07T00:13:17.608Z,78.55
2022-08-07T00:15:50.949Z,78.63
2022-08-07T00:18:24.295Z,78.71
2022-08-07T00:21:02.001Z,79.28
2022-08-07T00:23:36.599Z,79.79
2022-08-07T00:26:18.565Z,79.52
2022-08-07T00:28:56.429Z,79.34
2022-08-07T00:31:38.029Z,79.46
2022-08-07T00:34:08.821Z,79.17
2022-08-07T00:36:35.935Z,79.31
2022-08-07T00:39:05.173Z,78.41
2022-08-07T00:41:33.678Z,78.97
2022-08-07T00:44:12.141Z,78.34
2022-08-07T00:46:41.498Z,79.11
2022-08-07T00:49:10.256Z,78.72
2022-08-07T00:51:57.164Z,78.98
2022-08-07T00:54:25.359Z,79.01
2022-08-07T00:56:52.262Z,79.19
2022-08-07T00:59:35.232Z,79.44
2022-08-07T01:02:03.945Z,79.31
2022-08-07T01:04:40.094Z,79.25
2022-08-07T01:07:11.049Z,79.71
2022-08-07T01:10:04.608Z,79.65
2022-08-07T01:12:30.150Z,79.64
2022-08-07T01:15:01.207Z,80.16
2022-08-07T01:17:31.140Z,79.49
2022-08-07T01:20:03.862Z,79.33
2022-08-07T01:22:31.583Z,79.84
2022-08-07T01:24:58.761Z,80.11
2022-08-07T01:27:25.392Z,79.56
2022-08-07T01:29:59.585Z,79.71
2022-08-07T01:32:27.404Z,79.09
2022-08-07T01:34:56.356Z,78.80
2022-08-07T01:37:24.387Z,78.54
2022-08-07T01:39:52.085Z,78.87
2022-08-07T01:42:40.219Z,78.72
2022-08-07T01:45:09.723Z,78.52
2022-08-07T01:48:19.572Z,78.61
2022-08-07T01:50:31.176Z,78.61
2022-08-07T01:53:00.091Z,78.16
2022-08-07T01:55:29.448Z,78.56
2022-08-07T01:58:06.707Z,78.16
2022-08-07T02:00:58.063Z,78.23
2022-08-07T02:03:50.363Z,77.90
2022-08-07T02:06:31.216Z,78.46
2022-08-07T02:09:03.813Z,77.13
2022-08-07T02:12:02.741Z,76.86
2022-08-07T02:14:35.987Z,76.79
2022-08-07T02:17:07.812Z,76.21
2022-08-07T02:20:05.435Z,76.07
2022-08-07T02:22:26.131Z,75.44
2022-08-07T02:24:57.434Z,75.69
2022-08-07T02:27:26.597Z,75.56
2022-08-07T02:30:03.971Z,74.57
2022-08-07T02:32:39.693Z,75.55
2022-08-07T02:36:30.296Z,75.22
2022-08-07T02:38:12.971Z,74.65
2022-08-07T02:40:44.589Z,75.37
2022-08-07T02:43:16.168Z,75.01
2022-08-07T02:46:00.681Z,75.20
2022-08-07T02:48:28.991Z,75.11
2022-08-07T02:50:57.556Z,75.30
2022-08-07T02:53:31.357Z,75.43
2022-08-07T02:56:17.463Z,75.63
2022-08-07T02:58:50.006Z,76.08
2022-08-07T03:01:36.478Z,75.79
2022-08-07T03:04:12.544Z,75.91
2022-08-07T03:06:42.140Z,75.80
2022-08-07T03:09:11.695Z,76.05
2022-08-07T03:11:52.185Z,76.24
2022-08-07T03:14:26.308Z,76.81
2022-08-07T03:16:55.626Z,77.32
2022-08-07T03:19:22.829Z,77.15
2022-08-07T03:21:51.030Z,77.21
2022-08-07T03:24:26.951Z,77.32
2022-08-07T03:26:59.978Z,77.33
2022-08-07T03:29:32.131Z,78.03
2022-08-07T03:32:04.360Z,78.33
2022-08-07T03:34:32.979Z,78.13
2022-08-07T03:37:12.636Z,78.42
2022-08-07T03:39:46.474Z,78.77
2022-08-07T03:42:27.135Z,79.15
2022-08-07T03:44:57.771Z,79.48
2022-08-07T03:47:25.800Z,79.37
2022-08-07T03:49:56.984Z,79.73
2022-08-07T03:52:27.352Z,80.00
2022-08-07T03:55:06.083Z,80.20
2022-08-07T03:58:34.194Z,79.81
2022-08-07T04:00:30.434Z,81.00
2022-08-07T04:03:03.973Z,81.08
2022-08-07T04:05:39.512Z,80.90
2022-08-07T04:08:13.061Z,80.76
2022-08-07T04:10:54.199Z,81.10
2022-08-07T04:14:09.466Z,80.60
2022-08-07T04:16:19.903Z,81.00
2022-08-07T04:19:03.728Z,80.96
2022-08-07T04:21:33.578Z,80.72
2022-08-07T04:24:06.059Z,80.78
2022-08-07T04:26:35.104Z,80.60
2022-08-07T04:29:02.970Z,80.66
2022-08-07T04:31:38.657Z,80.46
2022-08-07T04:34:24.273Z,81.27
2022-08-07T04:37:00.247Z,81.38
2022-08-07T04:39:35.777Z,81.22
2022-08-07T04:42:04.005Z,81.71
2022-08-07T04:44:31.017Z,81.73
2022-08-07T04:47:23.676Z,82.54
2022-08-07T04:50:06.330Z,81.39
2022-08-07T04:52:52.543Z,81.15
2022-08-07T04:58:16.217Z,80.61
2022-08-07T04:59:15.857Z,80.05
2022-08-07T05:02:00.160Z,80.59
2022-08-07T05:04:43.874Z,80.43
2022-08-07T05:07:27.583Z,80.29
2022-08-07T05:10:12.706Z,80.34
2022-08-07T05:12:52.988Z,80.29
2022-08-07T05:15:26.751Z,79.91
2022-08-07T05:18:08.514Z,79.67
2022-08-07T05:20:46.740Z,78.93
2022-08-07T05:23:30.009Z,79.47
2022-08-07T05:26:13.822Z,79.33
2022-08-07T05:28:46.667Z,79.39
2022-08-07T05:31:18.473Z,79.87
2022-08-07T05:34:01.299Z,79.16
2022-08-07T05:36:35.684Z,78.55
2022-08-07T05:40:05.457Z,78.33
2022-08-07T05:42:01.750Z,77.52
2022-08-07T05:44:31.772Z,76.82
2022-08-07T05:47:01.211Z,75.62
2022-08-07T05:49:40.374Z,75.52
2022-08-07T05:52:11.418Z,74.43
2022-08-07T05:54:44.295Z,73.47
2022-08-07T05:57:21.668Z,69.46
2022-08-07T05:59:57.576Z,65.97
2022-08-07T06:02:28.923Z,63.96
2022-08-07T06:05:03.612Z,60.51
2022-08-07T06:08:13.070Z,57.37
2022-08-07T06:10:17.936Z,54.42
2022-08-07T06:12:46.029Z,53.51
2022-08-07T06:15:19.699Z,49.43
2022-08-07T06:17:53.480Z,49.53
2022-08-07T06:20:25.548Z,46.70
2022-08-07T06:23:02.188Z,45.36
2022-08-07T06:25:54.873Z,41.63
2022-08-07T06:28:27.139Z,41.16
2022-08-07T06:30:54.901Z,40.12
2022-08-07T06:33:22.536Z,41.24
2022-08-07T06:36:12.179Z,40.35
2022-08-07T06:38:36.088Z,41.38
2022-08-07T06:41:09.702Z,40.18
2022-08-07T06:43:45.998Z,39.77
2022-08-07T06:46:14.643Z,37.03
2022-08-07T06:48:47.534Z,37.04
2022-08-07T06:51:31.220Z,36.46
2022-08-07T06:55:29.404Z,37.66
2022-08-07T06:56:51.352Z,36.86
2022-08-07T07:00:13.438Z,37.36
2022-08-07T07:02:54.402Z,40.31
2022-08-07T07:05:04.749Z,37.63
2022-08-07T07:08:00.410Z,35.81
2022-08-07T07:10:29.807Z,34.99
2022-08-07T07:13:07.676Z,34.18
2022-08-07T07:15:43.422Z,33.03
2022-08-07T07:18:47.458Z,35.17
2022-08-07T07:21:19.626Z,35.26
2022-08-07T07:24:09.264Z,35.40
2022-08-07T07:26:38.084Z,35.78
2022-08-07T07:29:56.364Z,33.87
2022-08-07T07:32:06.310Z,33.84
2022-08-07T07:34:36.462Z,34.51
2022-08-07T07:37:22.181Z,33.02
2022-08-07T07:40:00.240Z,32.35
2022-08-07T07:42:33.019Z,32.49
2022-08-07T07:45:06.158Z,32.59
2022-08-07T07:47:42.833Z,32.21
2022-08-07T07:50:34.646Z,33.04
2022-08-07T07:53:13.696Z,30.29
2022-08-07T07:55:54.820Z,31.51
2022-08-07T07:58:29.768Z,29.88
2022-08-07T08:00:58.573Z,30.97
2022-08-07T08:04:10.162Z,29.46
2022-08-07T08:06:16.312Z,30.79
2022-08-07T08:08:44.918Z,30.37
2022-08-07T08:11:17.990Z,32.78
2022-08-07T08:14:02.147Z,31.73
2022-08-07T08:16:40.083Z,32.05
2022-08-07T08:19:17.793Z,31.98
2022-08-07T08:22:17.321Z,30.19
2022-08-07T08:25:24.844Z,31.41
2022-08-07T08:27:57.548Z,32.83
2022-08-07T08:30:29.938Z,33.81
2022-08-07T08:33:01.815Z,32.21
2022-08-07T08:35:42.949Z,32.32
2022-08-07T08:38:20.740Z,32.34
2022-08-07T08:41:17.384Z,35.87
2022-08-07T08:44:09.630Z,38.00
2022-08-07T08:46:48.867Z,36.11
2022-08-07T08:49:46.323Z,34.68
2022-08-07T08:52:32.285Z,33.11
2022-08-07T08:55:07.684Z,32.33
2022-08-07T08:57:48.908Z,35.56
2022-08-07T09:00:17.891Z,35.67
2022-08-07T09:03:10.218Z,34.12
2022-08-07T09:05:53.069Z,33.19
2022-08-07T09:08:33.642Z,33.44
2022-08-07T09:11:43.815Z,34.49
2022-08-07T09:14:27.682Z,35.14
2022-08-07T09:17:33.990Z,35.09
2022-08-07T09:20:58.007Z,35.82
2022-08-07T09:24:31.219Z,32.77
2022-08-07T09:27:04.682Z,29.24
2022-08-07T09:30:06.308Z,27.85
2022-08-07T09:33:16.790Z,28.97
2022-08-07T09:36:05.999Z,29.92
2022-08-07T09:38:50.132Z,28.47
2022-08-07T09:41:59.033Z,27.34
2022-08-07T09:47:52.708Z,28.25
2022-08-07T09:48:06.311Z,27.64
2022-08-07T09:51:03.487Z,27.76
2022-08-07T09:53:48.990Z,27.85
2022-08-07T09:56:47.883Z,27.52
2022-08-07T10:00:01.297Z,29.21
2022-08-07T10:03:08.239Z,28.78
2022-08-07T10:06:09.012Z,31.33
2022-08-07T10:08:57.011Z,32.32
2022-08-07T10:12:02.067Z,30.24
2022-08-07T10:14:43.670Z,29.55
2022-08-07T10:17:20.715Z,27.24
2022-08-07T10:19:55.876Z,29.24
2022-08-07T10:22:39.490Z,27.76
2022-08-07T10:25:12.879Z,27.49
2022-08-07T10:28:03.278Z,27.68
2022-08-07T10:30:39.053Z,27.64
2022-08-07T10:33:15.277Z,30.03
2022-08-07T10:36:12.534Z,29.33
2022-08-07T10:38:51.526Z,27.98
2022-08-07T10:41:46.473Z,27.02
2022-08-07T10:44:28.706Z,26.53
2022-08-07T10:47:52.730Z,26.81
2022-08-07T10:50:28.026Z,27.06
2022-08-07T10:53:13.389Z,26.96
2022-08-07T10:56:02.286Z,26.03
2022-08-07T10:58:59.983Z,26.17
2022-08-07T11:01:51.999Z,25.07
2022-08-07T11:04:46.093Z,26.45
2022-08-07T11:07:58.923Z,26.77
2022-08-07T11:10:59.848Z,26.14
2022-08-07T11:14:46.136Z,24.12
2022-08-07T11:16:41.544Z,26.63
2022-08-07T11:19:30.951Z,25.89
2022-08-07T11:22:37.159Z,23.38
2022-08-07T11:25:48.131Z,24.39
2022-08-07T11:28:17.684Z,24.30
2022-08-07T11:31:02.105Z,23.56
2022-08-07T11:33:53.628Z,24.04
2022-08-07T11:37:00.466Z,23.61
2022-08-07T11:39:59.521Z,24.56
2022-08-07T11:42:29.497Z,21.56
2022-08-07T11:45:23.776Z,22.92
2022-08-07T11:48:46.679Z,22.38
2022-08-07T11:51:46.849Z,21.91
2022-08-07T11:54:36.447Z,24.68
2022-08-07T11:57:58.169Z,23.36
2022-08-07T12:00:28.486Z,23.43
2022-08-07T12:03:44.498Z,24.85
2022-08-07T12:06:37.878Z,25.00
2022-08-07T12:09:16.700Z,23.70
2022-08-07T12:12:10.408Z,27.71
2022-08-07T12:15:01.962Z,25.05
2022-08-07T12:17:58.793Z,26.03
2022-08-07T12:20:46.329Z,24.32
2022-08-07T12:24:06.808Z,22.97
2022-08-07T12:26:47.029Z,23.67
2022-08-07T12:29:52.460Z,22.79
2022-08-07T12:32:38.038Z,22.08
2022-08-07T12:35:09.919Z,22.42
2022-08-07T12:38:09.227Z,23.00
2022-08-07T12:40:47.348Z,23.73
2022-08-07T12:44:02.349Z,24.14
2022-08-07T12:46:15.817Z,21.55
2022-08-07T12:49:25.689Z,22.13
2022-08-07T12:52:19.147Z,22.94
2022-08-07T12:55:09.376Z,22.95
2022-08-07T12:57:59.143Z,24.93
2022-08-07T13:00:35.957Z,24.84
2022-08-07T13:03:53.507Z,24.86
2022-08-07T13:06:32.467Z,23.41
2022-08-07T13:10:18.963Z,22.90
2022-08-07T13:12:31.914Z,24.25
2022-08-07T13:15:31.578Z,23.28
2022-08-07T13:18:26.860Z,23.57
2022-08-07T13:21:37.305Z,24.94
2022-08-07T13:24:20.338Z,23.64
2022-08-07T13:27:20.713Z,22.79
2022-08-07T13:29:58.570Z,24.38
2022-08-07T13:32:38.545Z,23.72
2022-08-07T13:36:00.247Z,22.15
2022-08-07T13:38:29.111Z,23.28
2022-08-07T13:41:06.052Z,22.41
2022-08-07T13:43:42.780Z,22.68
2022-08-07T13:46:25.515Z,21.18
2022-08-07T13:49:00.005Z,23.20
2022-08-07T13:52:22.200Z,23.55
2022-08-07T13:54:23.566Z,25.12
2022-08-07T13:56:59.524Z,24.73
2022-08-07T13:59:33.192Z,24.76
2022-08-07T14:02:10.869Z,23.90
2022-08-07T14:04:54.345Z,22.96
2022-08-07T14:07:24.928Z,21.93
2022-08-07T14:10:12.147Z,22.34
2022-08-07T14:12:55.898Z,23.02
2022-08-07T14:15:31.651Z,23.08
2022-08-07T14:18:13.137Z,22.46
2022-08-07T14:21:07.977Z,24.34
2022-08-07T14:24:00.801Z,22.46
2022-08-07T14:26:51.284Z,24.81
2022-08-07T14:30:07.139Z,25.83
2022-08-07T14:32:12.504Z,26.71
2022-08-07T14:34:47.102Z,27.88
2022-08-07T14:37:17.715Z,27.66
2022-08-07T14:42:59.967Z,26.83
2022-08-07T14:45:48.675Z,28.90
2022-08-07T14:48:19.628Z,28.49
2022-08-07T14:50:48.803Z,29.64
2022-08-07T14:54:08.957Z,29.95
2022-08-07T14:56:13.045Z,29.15
2022-08-07T14:58:44.529Z,29.78
2022-08-07T15:01:22.741Z,29.42
2022-08-07T15:03:53.279Z,29.42
2022-08-07T15:06:25.619Z,30.08
2022-08-07T15:11:54.528Z,29.13
2022-08-07T15:14:30.366Z,29.06
2022-08-07T15:17:01.138Z,29.07
2022-08-07T15:20:23.524Z,28.93
2022-08-07T15:22:29.188Z,29.05
2022-08-07T15:28:32.416Z,29.23
2022-08-07T15:31:04.517Z,30.46
2022-08-07T15:39:12.292Z,29.41
2022-08-07T15:42:45.977Z,29.73
2022-08-07T15:44:53.768Z,29.46
2022-08-07T15:47:59.906Z,29.43
2022-08-07T15:50:37.785Z,28.37
2022-08-07T15:53:24.523Z,28.16
2022-08-07T15:56:13.429Z,27.95
2022-08-07T15:58:53.346Z,28.95
2022-08-07T16:01:39.414Z,29.21
2022-08-07T16:04:15.170Z,28.36
2022-08-07T16:06:53.135Z,27.97
2022-08-07T16:09:42.173Z,27.96
2022-08-07T16:12:42.666Z,28.84
2022-08-07T16:15:55.731Z,28.97
2022-08-07T16:18:50.110Z,28.88
2022-08-07T16:22:05.138Z,29.40
2022-08-07T16:24:55.775Z,30.04
2022-08-07T16:27:40.766Z,29.73
2022-08-07T16:30:30.885Z,29.43
2022-08-07T16:34:02.073Z,29.80
2022-08-07T16:36:33.927Z,30.08
2022-08-07T16:39:33.676Z,29.64
2022-08-07T16:42:41.989Z,29.39
2022-08-07T16:46:33.602Z,30.90
2022-08-07T16:50:28.931Z,31.23
2022-08-07T16:52:48.749Z,31.47
2022-08-07T16:54:55.692Z,31.37
2022-08-07T16:58:02.231Z,31.14
2022-08-07T17:00:30.808Z,30.67
2022-08-07T17:03:17.916Z,30.88
2022-08-07T17:06:02.060Z,30.83
2022-08-07T17:09:10.747Z,30.77
2022-08-07T17:12:04.914Z,30.93
2022-08-07T17:14:46.564Z,31.23
2022-08-07T17:17:49.083Z,31.47
2022-08-07T17:20:41.252Z,31.52
2022-08-07T17:23:31.959Z,32.42
2022-08-07T17:26:24.147Z,32.64
2022-08-07T17:30:12.352Z,32.50
2022-08-07T17:32:51.875Z,31.67
2022-08-07T17:35:50.882Z,31.38
2022-08-07T17:38:33.426Z,31.90
2022-08-07T17:42:04.733Z,31.91
2022-08-07T17:44:33.852Z,31.60
2022-08-07T17:47:37.899Z,32.02
2022-08-07T17:50:18.981Z,32.10
2022-08-07T17:53:59.672Z,32.07
2022-08-07T17:56:13.571Z,32.49
2022-08-07T17:58:56.849Z,32.43
2022-08-07T18:01:59.300Z,32.74
2022-08-07T18:04:42.120Z,33.62
2022-08-07T18:07:24.631Z,34.14
2022-08-07T18:10:32.671Z,33.83
2022-08-07T18:12:59.951Z,34.93
2022-08-07T18:15:32.715Z,35.02
2022-08-07T18:18:47.271Z,35.75
2022-08-07T18:21:28.201Z,35.66
2022-08-07T18:24:08.826Z,36.89
2022-08-07T18:27:10.074Z,37.13
2022-08-07T18:30:07.511Z,37.76
2022-08-07T18:32:46.468Z,38.11
2022-08-07T18:35:31.087Z,39.93
2022-08-07T18:38:56.297Z,40.24
2022-08-07T18:41:54.246Z,41.28
2022-08-07T18:45:44.065Z,42.38
2022-08-07T18:48:02.586Z,42.53
2022-08-07T18:50:40.637Z,43.20
2022-08-07T18:53:39.928Z,43.67
2022-08-07T18:56:36.118Z,44.60
2022-08-07T18:59:46.859Z,45.41
2022-08-07T19:02:42.571Z,45.14
2022-08-07T19:06:02.719Z,46.41
2022-08-07T19:08:29.611Z,47.23
2022-08-07T19:11:36.194Z,46.90
2022-08-07T19:13:58.431Z,48.55
2022-08-07T19:17:04.157Z,48.31
2022-08-07T19:19:32.995Z,49.27
2022-08-07T19:22:11.338Z,49.62
2022-08-07T19:24:48.028Z,49.90
2022-08-07T19:28:31.057Z,50.55
2022-08-07T19:30:57.504Z,51.10
2022-08-07T19:33:12.801Z,51.50
2022-08-07T19:35:42.313Z,51.85
2022-08-07T19:38:17.272Z,51.96
2022-08-07T19:40:49.248Z,52.59
2022-08-07T19:43:43.749Z,53.44
2022-08-07T19:46:11.619Z,53.09
2022-08-07T19:48:44.424Z,54.00
2022-08-07T19:51:50.608Z,54.74
2022-08-07T19:54:33.334Z,54.85
2022-08-07T19:57:56.881Z,54.48
2022-08-07T19:59:54.051Z,55.38
2022-08-07T20:02:35.070Z,56.05
2022-08-07T20:05:08.549Z,55.94
2022-08-07T20:07:46.381Z,56.34
2022-08-07T20:10:35.472Z,56.62
2022-08-07T20:13:23.167Z,57.07
2022-08-07T20:15:53.733Z,57.22
2022-08-07T20:18:32.684Z,58.35
2022-08-07T20:21:02.970Z,57.79
2022-08-07T20:23:40.709Z,57.93
2022-08-07T20:26:12.853Z,58.75
2022-08-07T20:28:52.127Z,58.99
2022-08-07T20:31:21.682Z,59.14
2022-08-07T20:33:56.713Z,59.17
2022-08-07T20:36:27.136Z,58.81
2022-08-07T20:39:00.283Z,59.58
2022-08-07T20:41:34.015Z,59.64
2022-08-07T20:44:10.324Z,60.08
2022-08-07T20:46:43.190Z,60.20
2022-08-07T20:49:58.115Z,60.91
2022-08-07T20:52:06.654Z,61.78
2022-08-07T20:54:45.555Z,63.35
2022-08-07T20:57:22.335Z,64.13
2022-08-07T21:00:07.319Z,63.90
2022-08-07T21:02:59.969Z,63.81
2022-08-07T21:05:50.866Z,63.30
2022-08-07T21:08:25.440Z,63.97
2022-08-07T21:11:04.959Z,63.94
2022-08-07T21:13:43.998Z,64.95
2022-08-07T21:16:34.012Z,65.09
2022-08-07T21:19:03.012Z,64.65
2022-08-07T21:21:49.290Z,64.98
2022-08-07T21:24:48.002Z,65.08
2022-08-07T21:27:18.378Z,65.11
2022-08-07T21:29:55.016Z,65.49
2022-08-07T21:32:48.765Z,65.54
2022-08-07T21:35:34.721Z,65.95
2022-08-07T21:38:28.550Z,66.72
2022-08-07T21:41:38.342Z,67.02
2022-08-07T21:44:35.697Z,67.62
2022-08-07T21:47:17.356Z,68.29
2022-08-07T21:50:02.023Z,67.54
2022-08-07T21:52:49.711Z,67.28
2022-08-07T21:55:29.876Z,67.37
2022-08-07T21:58:09.135Z,67.76
2022-08-07T22:00:45.786Z,68.26
2022-08-07T22:03:35.400Z,68.22
2022-08-07T22:06:30.961Z,68.26
2022-08-07T22:09:10.265Z,68.51
2022-08-07T22:12:05.020Z,69.33
2022-08-07T22:14:38.836Z,69.17
2022-08-07T22:17:27.111Z,69.47
2022-08-07T22:20:23.463Z,69.49
2022-08-07T22:22:59.247Z,69.22
2022-08-07T22:25:51.052Z,69.85
2022-08-07T22:28:48.321Z,69.78
2022-08-07T22:31:56.340Z,69.84
2022-08-07T22:34:35.532Z,70.08
2022-08-07T22:37:09.151Z,70.17
2022-08-07T22:39:54.812Z,70.48
2022-08-07T22:42:25.783Z,70.61
2022-08-07T22:44:58.771Z,70.92
2022-08-07T22:47:49.381Z,71.21
2022-08-07T22:50:29.119Z,71.36
2022-08-07T22:53:18.884Z,71.94
2022-08-07T22:56:12.989Z,72.52
2022-08-07T22:59:01.692Z,73.06
2022-08-07T23:02:03.680Z,73.56
2022-08-07T23:04:57.696Z,73.28
2022-08-07T23:08:22.354Z,73.14
2022-08-07T23:11:29.131Z,74.07
2022-08-07T23:14:25.760Z,74.85
2022-08-07T23:17:08.567Z,74.75
2022-08-07T23:20:38.456Z,74.18
2022-08-07T23:24:05.856Z,74.71
2022-08-07T23:26:39.142Z,74.42
2022-08-07T23:30:35.340Z,74.57
2022-08-07T23:34:33.671Z,74.45
2022-08-07T23:36:29.131Z,74.81
2022-08-07T23:39:21.988Z,74.59
2022-08-07T23:42:21.698Z,74.53
2022-08-07T23:45:03.083Z,74.76
2022-08-07T23:48:10.380Z,75.00
2022-08-07T23:50:49.280Z,75.61
2022-08-07T23:53:51.173Z,75.60
2022-08-07T23:56:37.767Z,75.52
2022-08-07T23:59:10.781Z,75.55
